DEBAB EDDL-EDDL
Flight info
| Callsign | DEBAB |
|---|---|
| Flight time | 0h 13m |
| Altitude | |
| Route | |
| Aircraft | SR22 |
Departure
| Time | 2026-05-04 16:45 |
|---|---|
| Airport | Düsseldorf Airport (EDDL) |
Arrival
| Time | 2026-05-04 16:58 |
|---|---|
| Airport | Düsseldorf Airport (EDDL) |
| Time | Latitude | Longitude | Altitude | Speed | Heading |
|---|---|---|---|---|---|
| 2026-05-04 16:39 | 51.27613 | 6.75271 | 115 ft | 0 kts | 242° |
| 2026-05-04 16:40 | 51.27610 | 6.75264 | 115 ft | 4 kts | 242° |
| 2026-05-04 16:40 | 51.27737 | 6.75205 | 115 ft | 17 kts | 37° |
| 2026-05-04 16:41 | 51.27889 | 6.75517 | 123 ft | 20 kts | 52° |
| 2026-05-04 16:41 | 51.28176 | 6.76117 | 121 ft | 25 kts | 53° |
| 2026-05-04 16:42 | 51.28519 | 6.76840 | 123 ft | 28 kts | 53° |
| 2026-05-04 16:43 | 51.28756 | 6.77339 | 124 ft | 29 kts | 54° |
| 2026-05-04 16:43 | 51.28984 | 6.77596 | 120 ft | 9 kts | 324° |
| 2026-05-04 16:43 | 51.28989 | 6.77590 | 123 ft | 0 kts | 322° |
| 2026-05-04 16:44 | 51.28220 | 6.75735 | 374 ft | 104 kts | 237° |
| 2026-05-04 16:45 | 51.28687 | 6.73937 | 1128 ft | 107 kts | 328° |
| 2026-05-04 16:46 | 51.30609 | 6.74769 | 1664 ft | 147 kts | 57° |
| 2026-05-04 16:46 | 51.31726 | 6.77504 | 1439 ft | 147 kts | 58° |
| 2026-05-04 16:47 | 51.31338 | 6.79793 | 1005 ft | 119 kts | 174° |
| 2026-05-04 16:47 | 51.30014 | 6.78341 | 250 ft | 116 kts | 235° |
| 2026-05-04 16:48 | 51.29070 | 6.75409 | 601 ft | 106 kts | 291° |
| 2026-05-04 16:48 | 51.29608 | 6.74692 | 1010 ft | 105 kts | 335° |
| 2026-05-04 16:49 | 51.30938 | 6.74862 | 1415 ft | 134 kts | 60° |
| 2026-05-04 16:49 | 51.31590 | 6.78135 | 1312 ft | 166 kts | 73° |
| 2026-05-04 16:50 | 51.31107 | 6.80477 | 1642 ft | 127 kts | 207° |
| 2026-05-04 16:50 | 51.29744 | 6.77791 | 212 ft | 161 kts | 233° |
| 2026-05-04 16:51 | 51.28554 | 6.75269 | 491 ft | 125 kts | 234° |
| 2026-05-04 16:51 | 51.28554 | 6.74096 | 899 ft | 122 kts | 319° |
| 2026-05-04 16:51 | 51.30225 | 6.73380 | 1287 ft | 141 kts | 43° |
| 2026-05-04 16:52 | 51.31476 | 6.76323 | 1096 ft | 172 kts | 58° |
| 2026-05-04 16:52 | 51.32068 | 6.77893 | 1033 ft | 164 kts | 60° |
| 2026-05-04 16:53 | 51.32297 | 6.80802 | 1258 ft | 128 kts | 147° |
| 2026-05-04 16:53 | 51.30577 | 6.79500 | 616 ft | 123 kts | 233° |
| 2026-05-04 16:54 | 51.30062 | 6.78439 | 243 ft | 122 kts | 235° |
| 2026-05-04 16:55 | 51.28219 | 6.74747 | 836 ft | 107 kts | 236° |
| 2026-05-04 16:55 | 51.29187 | 6.73219 | 1094 ft | 144 kts | 340° |
| 2026-05-04 16:56 | 51.30659 | 6.74803 | 1338 ft | 157 kts | 53° |
| 2026-05-04 16:56 | 51.32073 | 6.79419 | 1586 ft | 136 kts | 75° |
| 2026-05-04 16:57 | 51.31915 | 6.80637 | 1196 ft | 127 kts | 167° |
| 2026-05-04 16:57 | 51.30512 | 6.79413 | 438 ft | 119 kts | 239° |
| 2026-05-04 16:58 | 51.29355 | 6.76937 | 126 ft | 24 kts | 227° |
| 2026-05-04 16:58 | 51.29337 | 6.76901 | 126 ft | 0 kts | 233° |
| 2026-05-04 16:59 | 51.28819 | 6.75815 | 202 ft | 101 kts | 232° |
| 2026-05-04 17:00 | 51.29393 | 6.72538 | 1133 ft | 141 kts | 349° |
| 2026-05-04 17:00 | 51.31395 | 6.75982 | 1575 ft | 163 kts | 52° |
| 2026-05-04 17:01 | 51.32633 | 6.78952 | 1864 ft | 163 kts | 62° |
| 2026-05-04 17:01 | 51.32702 | 6.81665 | 1410 ft | 128 kts | 168° |
| 2026-05-04 17:02 | 51.31155 | 6.81687 | 831 ft | 112 kts | 224° |
| 2026-05-04 17:02 | 51.30210 | 6.79917 | 418 ft | 100 kts | 233° |
| 2026-05-04 17:03 | 51.29795 | 6.79060 | 261 ft | 96 kts | 233° |
| 2026-05-04 17:03 | 51.29396 | 6.78220 | 151 ft | 93 kts | 233° |
| 2026-05-04 17:03 | 51.28569 | 6.76493 | 374 ft | 109 kts | 232° |
| 2026-05-04 17:04 | 51.28888 | 6.74615 | 1041 ft | 109 kts | 334° |
| 2026-05-04 17:04 | 51.30350 | 6.73621 | 1487 ft | 127 kts | 343° |
| 2026-05-04 17:05 | 51.31545 | 6.75745 | 1524 ft | 139 kts | 63° |
| 2026-05-04 17:05 | 51.32346 | 6.78393 | 1458 ft | 129 kts | 64° |
| 2026-05-04 17:06 | 51.32942 | 6.80588 | 1295 ft | 130 kts | 68° |
| 2026-05-04 17:06 | 51.33235 | 6.81918 | 1310 ft | 115 kts | 88° |
| 2026-05-04 17:07 | 51.31935 | 6.82386 | 1053 ft | 119 kts | 235° |
| 2026-05-04 17:07 | 51.31768 | 6.82020 | 969 ft | 121 kts | 234° |
| 2026-05-04 17:07 | 51.31123 | 6.80644 | 638 ft | 110 kts | 233° |
| 2026-05-04 17:07 | 51.30674 | 6.79694 | 419 ft | 103 kts | 233° |
| 2026-05-04 17:08 | 51.30253 | 6.78822 | 269 ft | 95 kts | 234° |
| 2026-05-04 17:08 | 51.29539 | 6.77324 | 126 ft | 68 kts | 233° |
| 2026-05-04 17:08 | 51.29400 | 6.77032 | 122 ft | 0 kts | 235° |
| 2026-05-04 17:09 | 51.29374 | 6.76977 | 126 ft | 31 kts | 232° |
| 2026-05-04 17:09 | 51.29100 | 6.76402 | 127 ft | 92 kts | 232° |
| 2026-05-04 17:09 | 51.28690 | 6.75540 | 359 ft | 104 kts | 232° |
| 2026-05-04 17:10 | 51.29517 | 6.74091 | 998 ft | 117 kts | 331° |
| 2026-05-04 17:10 | 51.31347 | 6.75872 | 1441 ft | 135 kts | 59° |
| 2026-05-04 17:11 | 51.31757 | 6.77056 | 1579 ft | 113 kts | 63° |
| 2026-05-04 17:11 | 51.32091 | 6.78265 | 1373 ft | 110 kts | 75° |
| 2026-05-04 17:11 | 51.31167 | 6.79797 | 981 ft | 99 kts | 187° |
| 2026-05-04 17:12 | 51.30488 | 6.79281 | 600 ft | 113 kts | 226° |
| 2026-05-04 17:12 | 51.29536 | 6.77317 | 128 ft | 99 kts | 233° |
| 2026-05-04 17:13 | 51.29194 | 6.74664 | 774 ft | 101 kts | 336° |
| 2026-05-04 17:14 | 51.31126 | 6.74644 | 1213 ft | 125 kts | 56° |
| 2026-05-04 17:14 | 51.31609 | 6.75879 | 1227 ft | 134 kts | 60° |
| 2026-05-04 17:14 | 51.32509 | 6.78487 | 1428 ft | 133 kts | 58° |
| 2026-05-04 17:15 | 51.32797 | 6.79895 | 1420 ft | 129 kts | 89° |
| 2026-05-04 17:15 | 51.31727 | 6.81566 | 1003 ft | 121 kts | 172° |
| 2026-05-04 17:16 | 51.30411 | 6.80324 | 469 ft | 111 kts | 232° |
| 2026-05-04 17:16 | 51.29197 | 6.77797 | 126 ft | 79 kts | 232° |
| 2026-05-04 17:17 | 51.28892 | 6.77142 | 123 ft | 68 kts | 233° |
| 2026-05-04 17:17 | 51.28330 | 6.76054 | 124 ft | 25 kts | 204° |
| 2026-05-04 17:18 | 51.28172 | 6.75938 | 123 ft | 25 kts | 209° |
| 2026-05-04 17:18 | 51.28135 | 6.75909 | 123 ft | 0 kts | 199° |
| 2026-05-04 17:19 | 51.28102 | 6.75887 | 124 ft | 9 kts | 205° |
| 2026-05-04 17:19 | 51.27879 | 6.75815 | 124 ft | 19 kts | 182° |
| 2026-05-04 17:20 | 51.27638 | 6.75817 | 123 ft | 19 kts | 163° |
| 2026-05-04 17:20 | 51.27461 | 6.75790 | 124 ft | 17 kts | 245° |
| 2026-05-04 17:20 | 51.27479 | 6.75629 | 123 ft | 20 kts | 335° |
| 2026-05-04 17:21 | 51.27472 | 6.75338 | 117 ft | 3 kts | 282° |
| 2026-05-04 17:21 | 51.27474 | 6.75330 | 117 ft | 0 kts | 283° |
| 2026-05-04 17:22 | 51.27479 | 6.75294 | 118 ft | 10 kts | 283° |
| 2026-05-04 17:23 | 51.27582 | 6.75244 | 115 ft | 7 kts | 90° |
| 2026-05-04 17:23 | 51.27617 | 6.75257 | 116 ft | 8 kts | 318° |
| 2026-05-04 17:23 | 51.27630 | 6.75227 | 116 ft | 0 kts | 251° |